Data Viewer
| City | State | Eastern Time | Source | 1 Hour Temp Max | 1 Hour Temp Min | 1 Hour Dew Point Max | 1 Hour Dew Point Min | 1 Hour RH Max | 1 Hour RH Min | 1 Hour BP Max | 1 Hour BP Min | 1 Hour Precip | 1 Hour Wind Max | 1 Hour Wind Max Dir |
|---|---|---|---|---|---|---|---|---|---|---|---|---|---|---|
| Logan Twp. | NJ | 2026-05-06 03:00 | Mesonet | 67 | 66 | 58 | 57 | 74 | 72 | 29.86 | 29.84 | 0.00 | 14 | S |
| Logan Twp. | NJ | 2026-05-06 16:00 | Mesonet | 67 | 66 | 61 | 60 | 81 | 79 | 29.78 | 29.75 | 0.00 | 23 | SW |
| Logan Twp. | NJ | 2026-05-07 01:00 | Mesonet | 63 | 58 | 58 | 53 | 84 | 83 | 29.83 | 29.80 | 0.00 | 18 | SSW |
| Logan Twp. | NJ | 2026-05-07 00:00 | Mesonet | 65 | 63 | 60 | 57 | 83 | 80 | 29.81 | 29.79 | 0.00 | 16 | SSW |
| Logan Twp. | NJ | 2026-05-06 23:00 | Mesonet | 66 | 65 | 61 | 60 | 85 | 83 | 29.81 | 29.78 | 0.00 | 15 | SW |
| Logan Twp. | NJ | 2026-05-06 22:00 | Mesonet | 67 | 66 | 61 | 60 | 83 | 81 | 29.82 | 29.79 | 0.00 | 11 | SW |
| Logan Twp. | NJ | 2026-05-06 21:00 | Mesonet | 68 | 67 | 61 | 60 | 81 | 78 | 29.81 | 29.77 | 0.00 | 10 | WSW |
| Logan Twp. | NJ | 2026-05-06 20:00 | Mesonet | 69 | 68 | 61 | 61 | 78 | 76 | 29.79 | 29.76 | 0.00 | 14 | SSW |
| Logan Twp. | NJ | 2026-05-06 19:00 | Mesonet | 69 | 69 | 62 | 61 | 76 | 76 | 29.78 | 29.76 | 0.00 | 17 | SW |
| Logan Twp. | NJ | 2026-05-06 18:00 | Mesonet | 70 | 69 | 62 | 61 | 78 | 76 | 29.77 | 29.76 | 0.00 | 18 | SSW |
| Logan Twp. | NJ | 2026-05-06 17:00 | Mesonet | 69 | 67 | 62 | 61 | 80 | 77 | 29.77 | 29.74 | 0.00 | 23 | SSW |
| Logan Twp. | NJ | 2026-05-06 15:00 | Mesonet | 66 | 65 | 60 | 59 | 82 | 80 | 29.80 | 29.77 | 0.00 | 26 | SSW |
| Logan Twp. | NJ | 2026-05-06 04:00 | Mesonet | 66 | 66 | 58 | 57 | 75 | 74 | 29.85 | 29.83 | 0.00 | 19 | S |
| Logan Twp. | NJ | 2026-05-06 14:00 | Mesonet | 65 | 64 | 59 | 58 | 82 | 80 | 29.81 | 29.78 | 0.00 | 28 | SW |
| Logan Twp. | NJ | 2026-05-06 13:00 | Mesonet | 66 | 65 | 59 | 57 | 80 | 76 | 29.83 | 29.79 | 0.01 | 27 | SW |
| Logan Twp. | NJ | 2026-05-06 12:00 | Mesonet | 68 | 65 | 58 | 56 | 76 | 67 | 29.84 | 29.82 | 0.01 | 20 | S |
| Logan Twp. | NJ | 2026-05-06 11:00 | Mesonet | 69 | 67 | 57 | 56 | 67 | 65 | 29.85 | 29.82 | 0.00 | 22 | SSW |
| Logan Twp. | NJ | 2026-05-06 10:00 | Mesonet | 70 | 67 | 59 | 56 | 69 | 65 | 29.85 | 29.82 | 0.00 | 22 | SSW |
| Logan Twp. | NJ | 2026-05-06 09:00 | Mesonet | 68 | 66 | 59 | 57 | 74 | 69 | 29.85 | 29.82 | 0.00 | 25 | SSW |
| Logan Twp. | NJ | 2026-05-06 08:00 | Mesonet | 67 | 64 | 58 | 57 | 77 | 74 | 29.84 | 29.82 | 0.00 | 21 | S |
| Logan Twp. | NJ | 2026-05-06 07:00 | Mesonet | 65 | 63 | 57 | 56 | 78 | 77 | 29.84 | 29.82 | 0.00 | 21 | SW |
| Logan Twp. | NJ | 2026-05-06 06:00 | Mesonet | 65 | 63 | 57 | 56 | 78 | 76 | 29.84 | 29.82 | 0.00 | 19 | S |
| Logan Twp. | NJ | 2026-05-06 05:00 | Mesonet | 66 | 65 | 58 | 57 | 76 | 75 | 29.84 | 29.82 | 0.00 | 20 | S |
| Logan Twp. | NJ | 2026-05-07 02:00 | Mesonet | 58 | 58 | 53 | 53 | 84 | 84 | 29.83 | 29.83 | 0.00 | 12 | SW |
data collection created in 0.008141040802002 (queried in 0.002232) rendered in: 5.1021575927734E-5

